sensor_id;sensor_type;location;lat;lon;timestamp;pressure;altitude;pressure_sealevel;temperature;humidity
70954;BME280;58618;47.490;8.736;2023-03-13T00:02:32;96333.41;;;7.70;100.00
70954;BME280;58618;47.490;8.736;2023-03-13T00:05:20;96303.34;;;7.85;100.00
70954;BME280;58618;47.490;8.736;2023-03-13T00:08:08;96322.09;;;7.91;100.00
70954;BME280;58618;47.490;8.736;2023-03-13T00:10:55;96320.56;;;7.85;100.00
70954;BME280;58618;47.490;8.736;2023-03-13T00:13:43;96315.19;;;7.66;100.00
70954;BME280;58618;47.490;8.736;2023-03-13T00:16:31;96309.00;;;7.72;100.00
70954;BME280;58618;47.490;8.736;2023-03-13T00:19:19;96285.66;;;7.63;100.00
70954;BME280;58618;47.490;8.736;2023-03-13T00:22:08;96302.34;;;7.71;100.00
70954;BME280;58618;47.490;8.736;2023-03-13T00:24:55;96310.53;;;7.78;100.00
70954;BME280;58618;47.490;8.736;2023-03-13T00:27:43;96307.97;;;7.88;100.00
70954;BME280;58618;47.490;8.736;2023-03-13T00:30:31;96301.75;;;8.10;100.00
70954;BME280;58618;47.490;8.736;2023-03-13T00:33:18;96289.94;;;8.19;98.86
70954;BME280;58618;47.490;8.736;2023-03-13T00:36:07;96294.56;;;8.12;100.00
70954;BME280;58618;47.490;8.736;2023-03-13T00:38:57;96282.75;;;8.05;100.00
70954;BME280;58618;47.490;8.736;2023-03-13T00:41:44;96287.88;;;8.16;98.73
70954;BME280;58618;47.490;8.736;2023-03-13T00:44:32;96295.09;;;8.14;99.25
70954;BME280;58618;47.490;8.736;2023-03-13T00:47:19;96288.41;;;8.07;100.00
70954;BME280;58618;47.490;8.736;2023-03-13T00:50:07;96269.91;;;8.11;96.71
70954;BME280;58618;47.490;8.736;2023-03-13T00:52:55;96281.66;;;8.37;95.59
70954;BME280;58618;47.490;8.736;2023-03-13T00:55:52;96281.19;;;8.25;98.64
70954;BME280;58618;47.490;8.736;2023-03-13T00:58:41;96282.19;;;8.39;97.20
70954;BME280;58618;47.490;8.736;2023-03-13T01:01:30;96276.41;;;8.62;92.88
70954;BME280;58618;47.490;8.736;2023-03-13T01:04:18;96272.69;;;8.34;95.49
70954;BME280;58618;47.490;8.736;2023-03-13T01:07:05;96281.69;;;8.32;96.16
70954;BME280;58618;47.490;8.736;2023-03-13T01:09:53;96282.69;;;8.26;96.93
70954;BME280;58618;47.490;8.736;2023-03-13T01:12:42;96270.38;;;8.28;96.17
70954;BME280;58618;47.490;8.736;2023-03-13T01:15:29;96278.59;;;8.20;100.00
70954;BME280;58618;47.490;8.736;2023-03-13T01:18:16;96273.91;;;8.47;93.81
70954;BME280;58618;47.490;8.736;2023-03-13T01:21:04;96258.25;;;8.43;94.41
70954;BME280;58618;47.490;8.736;2023-03-13T01:23:53;96262.91;;;8.26;97.98
70954;BME280;58618;47.490;8.736;2023-03-13T01:26:40;96250.78;;;8.47;93.02
70954;BME280;58618;47.490;8.736;2023-03-13T01:29:29;96257.47;;;8.43;96.28
70954;BME280;58618;47.490;8.736;2023-03-13T01:32:16;96254.88;;;8.48;94.81
70954;BME280;58618;47.490;8.736;2023-03-13T01:35:04;96250.53;;;8.48;93.22
70954;BME280;58618;47.490;8.736;2023-03-13T01:37:51;96255.13;;;8.52;93.96
70954;BME280;58618;47.490;8.736;2023-03-13T01:40:39;96248.72;;;8.49;92.95
70954;BME280;58618;47.490;8.736;2023-03-13T01:43:29;96255.31;;;8.65;90.37
70954;BME280;58618;47.490;8.736;2023-03-13T01:46:19;96250.13;;;8.75;90.24
70954;BME280;58618;47.490;8.736;2023-03-13T01:49:09;96239.66;;;8.62;91.62
70954;BME280;58618;47.490;8.736;2023-03-13T01:52:00;96235.63;;;8.89;88.66
70954;BME280;58618;47.490;8.736;2023-03-13T01:54:52;96226.66;;;8.87;88.80
70954;BME280;58618;47.490;8.736;2023-03-13T01:57:43;96208.97;;;8.75;90.65
70954;BME280;58618;47.490;8.736;2023-03-13T02:00:34;96229.25;;;8.82;88.16
70954;BME280;58618;47.490;8.736;2023-03-13T02:03:25;96234.63;;;8.85;88.65
70954;BME280;58618;47.490;8.736;2023-03-13T02:06:13;96226.47;;;8.73;89.24
70954;BME280;58618;47.490;8.736;2023-03-13T02:09:02;96194.69;;;8.59;88.90
70954;BME280;58618;47.490;8.736;2023-03-13T02:11:53;96209.97;;;8.79;87.51
70954;BME280;58618;47.490;8.736;2023-03-13T02:14:44;96214.13;;;8.75;87.45
70954;BME280;58618;47.490;8.736;2023-03-13T02:17:33;96212.09;;;8.67;90.20
70954;BME280;58618;47.490;8.736;2023-03-13T02:20:23;96217.66;;;8.84;86.06
70954;BME280;58618;47.490;8.736;2023-03-13T02:23:14;96207.28;;;8.95;85.44
70954;BME280;58618;47.490;8.736;2023-03-13T02:26:06;96205.53;;;8.90;86.02
70954;BME280;58618;47.490;8.736;2023-03-13T02:28:54;96212.31;;;8.76;88.77
70954;BME280;58618;47.490;8.736;2023-03-13T02:31:41;96204.41;;;8.62;88.95
70954;BME280;58618;47.490;8.736;2023-03-13T02:34:31;96191.91;;;8.51;89.88
70954;BME280;58618;47.490;8.736;2023-03-13T02:37:20;96201.94;;;8.47;90.21
70954;BME280;58618;47.490;8.736;2023-03-13T02:40:11;96202.44;;;8.54;88.11
70954;BME280;58618;47.490;8.736;2023-03-13T02:43:04;96181.25;;;8.67;85.81
70954;BME280;58618;47.490;8.736;2023-03-13T02:46:05;96180.03;;;8.60;86.74
70954;BME280;58618;47.490;8.736;2023-03-13T02:48:54;96168.44;;;8.96;83.05
70954;BME280;58618;47.490;8.736;2023-03-13T02:51:43;96147.25;;;8.75;85.24
70954;BME280;58618;47.490;8.736;2023-03-13T02:54:33;96159.41;;;9.04;81.64
70954;BME280;58618;47.490;8.736;2023-03-13T02:57:22;96158.16;;;8.96;84.04
70954;BME280;58618;47.490;8.736;2023-03-13T03:00:11;96156.19;;;8.88;84.09
70954;BME280;58618;47.490;8.736;2023-03-13T03:03:02;96159.44;;;8.94;84.37
70954;BME280;58618;47.490;8.736;2023-03-13T03:05:49;96148.94;;;8.90;81.94
70954;BME280;58618;47.490;8.736;2023-03-13T03:08:36;96156.47;;;8.81;83.01
70954;BME280;58618;47.490;8.736;2023-03-13T03:11:26;96165.31;;;8.70;83.50
70954;BME280;58618;47.490;8.736;2023-03-13T03:14:14;96166.84;;;8.71;82.77
70954;BME280;58618;47.490;8.736;2023-03-13T03:17:03;96169.16;;;8.68;86.49
70954;BME280;58618;47.490;8.736;2023-03-13T03:19:50;96166.22;;;8.84;82.81
70954;BME280;58618;47.490;8.736;2023-03-13T03:22:37;96167.69;;;8.96;83.98
70954;BME280;58618;47.490;8.736;2023-03-13T03:25:25;96163.53;;;9.00;81.41
70954;BME280;58618;47.490;8.736;2023-03-13T03:28:12;96152.78;;;8.93;81.30
70954;BME280;58618;47.490;8.736;2023-03-13T03:31:03;96162.00;;;8.99;82.84
70954;BME280;58618;47.490;8.736;2023-03-13T03:33:52;96159.06;;;9.10;82.25
70954;BME280;58618;47.490;8.736;2023-03-13T03:36:39;96148.09;;;9.00;82.13
70954;BME280;58618;47.490;8.736;2023-03-13T03:39:27;96141.91;;;9.01;80.82
70954;BME280;58618;47.490;8.736;2023-03-13T03:42:14;96151.72;;;8.99;81.72
70954;BME280;58618;47.490;8.736;2023-03-13T03:45:02;96142.16;;;8.99;82.81
70954;BME280;58618;47.490;8.736;2023-03-13T03:47:50;96145.97;;;9.07;81.88
70954;BME280;58618;47.490;8.736;2023-03-13T03:50:39;96145.06;;;9.21;80.04
70954;BME280;58618;47.490;8.736;2023-03-13T03:53:26;96147.94;;;9.20;80.53
70954;BME280;58618;47.490;8.736;2023-03-13T03:56:14;96138.72;;;9.14;80.03
70954;BME280;58618;47.490;8.736;2023-03-13T03:59:01;96151.06;;;9.12;81.45
70954;BME280;58618;47.490;8.736;2023-03-13T04:01:48;96157.13;;;9.26;79.68
70954;BME280;58618;47.490;8.736;2023-03-13T04:04:36;96165.38;;;9.23;80.26
70954;BME280;58618;47.490;8.736;2023-03-13T04:07:24;96165.91;;;9.25;80.92
70954;BME280;58618;47.490;8.736;2023-03-13T04:10:12;96179.19;;;9.32;78.54
70954;BME280;58618;47.490;8.736;2023-03-13T04:12:59;96164.88;;;9.21;80.41
70954;BME280;58618;47.490;8.736;2023-03-13T04:15:47;96140.09;;;9.01;81.37
70954;BME280;58618;47.490;8.736;2023-03-13T04:18:34;96170.63;;;9.13;80.70
70954;BME280;58618;47.490;8.736;2023-03-13T04:21:22;96161.84;;;9.19;80.08
70954;BME280;58618;47.490;8.736;2023-03-13T04:24:10;96157.75;;;9.13;81.57
70954;BME280;58618;47.490;8.736;2023-03-13T04:26:58;96134.09;;;9.11;80.96
70954;BME280;58618;47.490;8.736;2023-03-13T04:29:46;96127.88;;;9.17;80.97
70954;BME280;58618;47.490;8.736;2023-03-13T04:32:34;96125.25;;;9.22;80.46
70954;BME280;58618;47.490;8.736;2023-03-13T04:35:21;96132.81;;;9.37;78.66
70954;BME280;58618;47.490;8.736;2023-03-13T04:38:09;96126.69;;;9.33;81.53
70954;BME280;58618;47.490;8.736;2023-03-13T04:40:58;96130.19;;;9.42;79.37
70954;BME280;58618;47.490;8.736;2023-03-13T04:43:45;96117.38;;;9.37;78.74
70954;BME280;58618;47.490;8.736;2023-03-13T04:46:32;96128.13;;;9.44;79.08
70954;BME280;58618;47.490;8.736;2023-03-13T04:49:19;96118.03;;;9.48;79.47
70954;BME280;58618;47.490;8.736;2023-03-13T04:52:07;96125.94;;;9.56;79.23
70954;BME280;58618;47.490;8.736;2023-03-13T04:54:54;96089.25;;;9.46;77.73
70954;BME280;58618;47.490;8.736;2023-03-13T04:57:43;96115.94;;;9.73;77.95
70954;BME280;58618;47.490;8.736;2023-03-13T05:00:30;96124.28;;;9.65;78.96
70954;BME280;58618;47.490;8.736;2023-03-13T05:03:17;96123.72;;;9.68;78.53
70954;BME280;58618;47.490;8.736;2023-03-13T05:06:05;96114.09;;;9.55;80.00
70954;BME280;58618;47.490;8.736;2023-03-13T05:08:53;96115.63;;;9.56;79.21
70954;BME280;58618;47.490;8.736;2023-03-13T05:11:40;96106.31;;;9.60;79.33
70954;BME280;58618;47.490;8.736;2023-03-13T05:14:29;96111.09;;;9.72;78.11
70954;BME280;58618;47.490;8.736;2023-03-13T05:17:16;96118.63;;;9.63;79.79
70954;BME280;58618;47.490;8.736;2023-03-13T05:20:05;96112.00;;;9.57;79.02
70954;BME280;58618;47.490;8.736;2023-03-13T05:22:55;96104.84;;;9.54;79.57
70954;BME280;58618;47.490;8.736;2023-03-13T05:25:42;96081.66;;;9.54;77.25
70954;BME280;58618;47.490;8.736;2023-03-13T05:28:30;96103.13;;;9.68;78.49
70954;BME280;58618;47.490;8.736;2023-03-13T05:31:19;96078.06;;;9.55;78.14
70954;BME280;58618;47.490;8.736;2023-03-13T05:34:06;96083.94;;;9.80;75.82
70954;BME280;58618;47.490;8.736;2023-03-13T05:36:54;96089.09;;;9.80;76.17
70954;BME280;58618;47.490;8.736;2023-03-13T05:39:41;96087.59;;;9.73;76.50
70954;BME280;58618;47.490;8.736;2023-03-13T05:42:28;96094.56;;;9.73;76.49
70954;BME280;58618;47.490;8.736;2023-03-13T05:45:16;96083.53;;;9.72;75.81
70954;BME280;58618;47.490;8.736;2023-03-13T05:48:06;96090.41;;;9.77;75.38
70954;BME280;58618;47.490;8.736;2023-03-13T05:50:53;96090.81;;;9.65;75.98
70954;BME280;58618;47.490;8.736;2023-03-13T05:53:40;96098.41;;;9.75;75.10
70954;BME280;58618;47.490;8.736;2023-03-13T05:56:28;96095.50;;;9.82;74.04
70954;BME280;58618;47.490;8.736;2023-03-13T05:59:15;96084.91;;;9.84;72.55
70954;BME280;58618;47.490;8.736;2023-03-13T06:02:02;96084.66;;;10.04;72.35
70954;BME280;58618;47.490;8.736;2023-03-13T06:04:51;96084.03;;;9.93;73.47
70954;BME280;58618;47.490;8.736;2023-03-13T06:07:38;96086.94;;;9.87;73.14
70954;BME280;58618;47.490;8.736;2023-03-13T06:10:26;96079.16;;;9.92;71.31
70954;BME280;58618;47.490;8.736;2023-03-13T06:13:13;96078.88;;;9.93;72.99
70954;BME280;58618;47.490;8.736;2023-03-13T06:16:00;96071.41;;;9.92;73.67
70954;BME280;58618;47.490;8.736;2023-03-13T06:18:48;96074.59;;;9.84;73.64
70954;BME280;58618;47.490;8.736;2023-03-13T06:21:36;96069.59;;;9.92;72.98
70954;BME280;58618;47.490;8.736;2023-03-13T06:24:24;96067.56;;;9.89;73.03
70954;BME280;58618;47.490;8.736;2023-03-13T06:27:11;96069.28;;;9.99;75.45
70954;BME280;58618;47.490;8.736;2023-03-13T06:29:58;96077.19;;;10.02;73.48
70954;BME280;58618;47.490;8.736;2023-03-13T06:32:46;96069.28;;;10.18;71.31
70954;BME280;58618;47.490;8.736;2023-03-13T06:35:38;96073.06;;;10.25;71.30
70954;BME280;58618;47.490;8.736;2023-03-13T06:38:27;96073.81;;;10.26;72.28
70954;BME280;58618;47.490;8.736;2023-03-13T06:41:16;96076.53;;;10.34;71.76
70954;BME280;58618;47.490;8.736;2023-03-13T06:44:03;96079.09;;;10.34;73.46
70954;BME280;58618;47.490;8.736;2023-03-13T06:46:51;96065.56;;;10.42;70.60
70954;BME280;58618;47.490;8.736;2023-03-13T06:49:38;96065.63;;;10.56;69.66
70954;BME280;58618;47.490;8.736;2023-03-13T06:52:25;96073.53;;;10.59;71.72
70954;BME280;58618;47.490;8.736;2023-03-13T06:55:14;96073.19;;;10.66;69.79
70954;BME280;58618;47.490;8.736;2023-03-13T06:58:01;96079.56;;;10.69;71.59
70954;BME280;58618;47.490;8.736;2023-03-13T07:00:48;96073.97;;;10.67;70.29
70954;BME280;58618;47.490;8.736;2023-03-13T07:03:36;96070.34;;;10.68;70.09
70954;BME280;58618;47.490;8.736;2023-03-13T07:06:24;96062.97;;;10.75;70.01
70954;BME280;58618;47.490;8.736;2023-03-13T07:09:11;96052.56;;;10.80;69.73
70954;BME280;58618;47.490;8.736;2023-03-13T07:12:00;96043.34;;;11.06;68.89
70954;BME280;58618;47.490;8.736;2023-03-13T07:14:48;96045.63;;;11.21;69.29
70954;BME280;58618;47.490;8.736;2023-03-13T07:17:35;96038.56;;;11.40;68.28
70954;BME280;58618;47.490;8.736;2023-03-13T07:20:23;96047.19;;;11.99;66.64
70954;BME280;58618;47.490;8.736;2023-03-13T07:23:10;96047.00;;;12.32;66.72
70954;BME280;58618;47.490;8.736;2023-03-13T07:25:59;96043.31;;;12.77;63.91
70954;BME280;58618;47.490;8.736;2023-03-13T07:28:48;96055.63;;;12.80;65.05
70954;BME280;58618;47.490;8.736;2023-03-13T07:31:35;96055.19;;;12.78;65.24
70954;BME280;58618;47.490;8.736;2023-03-13T07:34:24;96040.88;;;13.51;60.59
70954;BME280;58618;47.490;8.736;2023-03-13T07:37:11;96045.91;;;13.56;62.38
70954;BME280;58618;47.490;8.736;2023-03-13T07:39:59;96051.44;;;13.15;63.83
70954;BME280;58618;47.490;8.736;2023-03-13T07:42:46;96060.09;;;13.59;61.21
70954;BME280;58618;47.490;8.736;2023-03-13T07:45:34;96067.13;;;13.58;60.46
70954;BME280;58618;47.490;8.736;2023-03-13T07:48:23;96071.19;;;13.50;60.95
70954;BME280;58618;47.490;8.736;2023-03-13T07:51:13;96070.56;;;13.05;62.74
70954;BME280;58618;47.490;8.736;2023-03-13T07:54:01;96077.06;;;13.82;61.69
70954;BME280;58618;47.490;8.736;2023-03-13T07:56:49;96064.38;;;13.63;61.17
70954;BME280;58618;47.490;8.736;2023-03-13T07:59:36;96069.31;;;13.90;59.85
70954;BME280;58618;47.490;8.736;2023-03-13T08:02:25;96079.84;;;14.11;58.13
70954;BME280;58618;47.490;8.736;2023-03-13T08:05:13;96053.59;;;13.95;59.32
70954;BME280;58618;47.490;8.736;2023-03-13T08:08:00;96065.69;;;14.43;58.57
70954;BME280;58618;47.490;8.736;2023-03-13T08:10:47;96069.94;;;14.05;58.42
70954;BME280;58618;47.490;8.736;2023-03-13T08:13:35;96050.53;;;13.85;58.42
70954;BME280;58618;47.490;8.736;2023-03-13T08:16:24;96056.56;;;13.46;59.74
70954;BME280;58618;47.490;8.736;2023-03-13T08:19:13;96060.25;;;13.71;59.55
70954;BME280;58618;47.490;8.736;2023-03-13T08:22:01;96062.03;;;13.44;60.57
70954;BME280;58618;47.490;8.736;2023-03-13T08:24:48;96053.19;;;13.37;61.55
70954;BME280;58618;47.490;8.736;2023-03-13T08:27:35;96066.50;;;13.61;61.93
70954;BME280;58618;47.490;8.736;2023-03-13T08:30:22;96068.06;;;13.79;61.20
70954;BME280;58618;47.490;8.736;2023-03-13T08:33:10;96068.63;;;13.59;59.19
70954;BME280;58618;47.490;8.736;2023-03-13T08:35:59;96059.44;;;13.36;60.51
70954;BME280;58618;47.490;8.736;2023-03-13T08:38:47;96043.66;;;13.15;59.96
70954;BME280;58618;47.490;8.736;2023-03-13T08:41:35;96047.53;;;13.35;59.58
70954;BME280;58618;47.490;8.736;2023-03-13T08:44:22;96031.25;;;13.43;61.86
70954;BME280;58618;47.490;8.736;2023-03-13T08:47:10;96019.22;;;13.56;59.53
70954;BME280;58618;47.490;8.736;2023-03-13T08:49:57;96029.03;;;14.02;59.14
70954;BME280;58618;47.490;8.736;2023-03-13T08:52:46;96003.25;;;13.71;58.82
70954;BME280;58618;47.490;8.736;2023-03-13T08:55:33;96020.78;;;14.51;57.80
70954;BME280;58618;47.490;8.736;2023-03-13T08:58:20;96017.50;;;14.80;56.36
70954;BME280;58618;47.490;8.736;2023-03-13T09:01:09;96007.13;;;14.80;56.10
70954;BME280;58618;47.490;8.736;2023-03-13T09:03:57;95997.75;;;14.88;55.39
70954;BME280;58618;47.490;8.736;2023-03-13T09:06:45;96006.06;;;14.72;55.56
70954;BME280;58618;47.490;8.736;2023-03-13T09:09:34;95998.78;;;14.57;56.19
70954;BME280;58618;47.490;8.736;2023-03-13T09:12:21;95988.00;;;14.85;57.04
70954;BME280;58618;47.490;8.736;2023-03-13T09:15:09;95992.78;;;15.12;56.82
70954;BME280;58618;47.490;8.736;2023-03-13T09:17:56;95975.75;;;15.52;53.23
70954;BME280;58618;47.490;8.736;2023-03-13T09:20:44;95981.22;;;15.59;53.56
70954;BME280;58618;47.490;8.736;2023-03-13T09:23:31;95990.22;;;15.33;54.05
70954;BME280;58618;47.490;8.736;2023-03-13T09:26:21;95977.72;;;15.26;55.46
70954;BME280;58618;47.490;8.736;2023-03-13T09:29:08;95972.53;;;15.55;55.44
70954;BME280;58618;47.490;8.736;2023-03-13T09:31:55;95940.75;;;15.71;55.03
70954;BME280;58618;47.490;8.736;2023-03-13T09:34:43;95945.34;;;15.53;55.24
70954;BME280;58618;47.490;8.736;2023-03-13T09:37:30;95943.50;;;15.45;54.51
70954;BME280;58618;47.490;8.736;2023-03-13T09:40:19;95919.03;;;15.46;54.65
70954;BME280;58618;47.490;8.736;2023-03-13T09:43:20;95928.19;;;15.31;58.06
70954;BME280;58618;47.490;8.736;2023-03-13T09:46:15;95942.94;;;15.39;54.13
70954;BME280;58618;47.490;8.736;2023-03-13T09:49:11;95919.50;;;15.48;55.39
70954;BME280;58618;47.490;8.736;2023-03-13T09:52:06;95932.66;;;15.51;53.74
70954;BME280;58618;47.490;8.736;2023-03-13T09:55:01;95927.66;;;15.17;54.09
70954;BME280;58618;47.490;8.736;2023-03-13T09:57:51;95902.69;;;15.45;56.11
70954;BME280;58618;47.490;8.736;2023-03-13T10:00:43;95910.88;;;15.56;55.36
70954;BME280;58618;47.490;8.736;2023-03-13T10:03:37;95905.84;;;15.30;53.24
70954;BME280;58618;47.490;8.736;2023-03-13T10:06:26;95907.66;;;15.80;54.93
70954;BME280;58618;47.490;8.736;2023-03-13T10:09:17;95903.31;;;15.84;54.28
70954;BME280;58618;47.490;8.736;2023-03-13T10:12:14;95892.63;;;15.97;53.48
70954;BME280;58618;47.490;8.736;2023-03-13T10:15:20;95893.97;;;16.16;54.87
70954;BME280;58618;47.490;8.736;2023-03-13T10:18:17;95891.50;;;16.19;53.72
70954;BME280;58618;47.490;8.736;2023-03-13T10:21:13;95887.75;;;15.96;53.06
70954;BME280;58618;47.490;8.736;2023-03-13T10:24:05;95890.00;;;16.30;52.60
70954;BME280;58618;47.490;8.736;2023-03-13T10:26:58;95872.50;;;16.19;52.94
70954;BME280;58618;47.490;8.736;2023-03-13T10:29:45;95866.16;;;16.28;53.69
70954;BME280;58618;47.490;8.736;2023-03-13T10:32:33;95867.03;;;16.57;54.41
70954;BME280;58618;47.490;8.736;2023-03-13T10:35:23;95862.28;;;16.59;54.45
70954;BME280;58618;47.490;8.736;2023-03-13T10:38:12;95851.09;;;16.82;53.26
70954;BME280;58618;47.490;8.736;2023-03-13T10:41:01;95834.06;;;16.73;53.22
70954;BME280;58618;47.490;8.736;2023-03-13T10:43:54;95836.00;;;16.88;55.01
70954;BME280;58618;47.490;8.736;2023-03-13T10:46:46;95832.69;;;17.03;56.08
70954;BME280;58618;47.490;8.736;2023-03-13T10:49:46;95836.56;;;17.21;53.17
70954;BME280;58618;47.490;8.736;2023-03-13T10:52:42;95827.00;;;16.61;54.37
70954;BME280;58618;47.490;8.736;2023-03-13T10:55:31;95827.91;;;17.17;55.88
70954;BME280;58618;47.490;8.736;2023-03-13T10:58:22;95827.59;;;17.07;55.56
70954;BME280;58618;47.490;8.736;2023-03-13T11:01:18;95820.56;;;16.95;53.75
70954;BME280;58618;47.490;8.736;2023-03-13T11:04:19;95806.50;;;16.72;54.79
70954;BME280;58618;47.490;8.736;2023-03-13T11:07:13;95805.84;;;16.51;56.69
70954;BME280;58618;47.490;8.736;2023-03-13T11:10:16;95795.19;;;16.56;58.87
70954;BME280;58618;47.490;8.736;2023-03-13T11:13:04;95796.28;;;16.91;58.47
70954;BME280;58618;47.490;8.736;2023-03-13T11:15:54;95774.69;;;16.78;55.43
70954;BME280;58618;47.490;8.736;2023-03-13T11:18:54;95771.38;;;16.94;56.71
70954;BME280;58618;47.490;8.736;2023-03-13T11:21:48;95764.47;;;17.13;55.05
70954;BME280;58618;47.490;8.736;2023-03-13T11:24:45;95761.59;;;17.30;57.10
70954;BME280;58618;47.490;8.736;2023-03-13T11:27:42;95754.44;;;17.55;54.23
70954;BME280;58618;47.490;8.736;2023-03-13T11:30:44;95752.16;;;17.54;54.84
70954;BME280;58618;47.490;8.736;2023-03-13T11:33:45;95747.63;;;17.82;55.25
70954;BME280;58618;47.490;8.736;2023-03-13T11:36:46;95741.00;;;18.00;53.76
70954;BME280;58618;47.490;8.736;2023-03-13T11:39:45;95745.19;;;18.05;54.42
70954;BME280;58618;47.490;8.736;2023-03-13T11:42:43;95734.69;;;18.01;56.52
70954;BME280;58618;47.490;8.736;2023-03-13T11:48:58;95728.34;;;18.18;54.31
70954;BME280;58618;47.490;8.736;2023-03-13T11:52:00;95719.03;;;18.01;52.55
70954;BME280;58618;47.490;8.736;2023-03-13T11:55:09;95716.31;;;17.82;53.29
70954;BME280;58618;47.490;8.736;2023-03-13T12:01:31;95693.94;;;18.12;53.19
70954;BME280;58618;47.490;8.736;2023-03-13T12:04:24;95695.75;;;18.28;54.08
70954;BME280;58618;47.490;8.736;2023-03-13T12:07:19;95676.00;;;18.11;52.29
70954;BME280;58618;47.490;8.736;2023-03-13T12:10:11;95665.75;;;18.02;52.74
70954;BME280;58618;47.490;8.736;2023-03-13T12:13:04;95673.31;;;18.07;55.44
70954;BME280;58618;47.490;8.736;2023-03-13T12:15:57;95659.31;;;17.65;52.79
70954;BME280;58618;47.490;8.736;2023-03-13T12:18:48;95656.50;;;17.73;53.82
70954;BME280;58618;47.490;8.736;2023-03-13T12:21:38;95657.41;;;17.97;55.41
70954;BME280;58618;47.490;8.736;2023-03-13T12:24:32;95644.69;;;17.95;53.45
70954;BME280;58618;47.490;8.736;2023-03-13T12:27:25;95634.00;;;18.00;54.92
70954;BME280;58618;47.490;8.736;2023-03-13T12:30:21;95627.66;;;18.17;53.18
70954;BME280;58618;47.490;8.736;2023-03-13T12:33:18;95615.28;;;18.33;53.31
70954;BME280;58618;47.490;8.736;2023-03-13T12:36:12;95609.09;;;18.22;54.78
70954;BME280;58618;47.490;8.736;2023-03-13T12:39:09;95606.44;;;18.38;53.84
70954;BME280;58618;47.490;8.736;2023-03-13T12:42:12;95589.94;;;18.53;52.94
70954;BME280;58618;47.490;8.736;2023-03-13T12:45:04;95591.63;;;18.61;53.77
70954;BME280;58618;47.490;8.736;2023-03-13T12:48:34;95585.03;;;18.51;54.94
70954;BME280;58618;47.490;8.736;2023-03-13T12:51:40;95571.94;;;18.48;52.84
70954;BME280;58618;47.490;8.736;2023-03-13T12:54:39;95557.25;;;18.40;54.25
70954;BME280;58618;47.490;8.736;2023-03-13T13:01:03;95546.66;;;18.33;52.59
70954;BME280;58618;47.490;8.736;2023-03-13T13:03:55;95539.34;;;18.42;52.00
70954;BME280;58618;47.490;8.736;2023-03-13T13:06:56;95510.25;;;18.40;51.68
70954;BME280;58618;47.490;8.736;2023-03-13T13:10:00;95505.69;;;18.56;50.44
70954;BME280;58618;47.490;8.736;2023-03-13T13:13:24;95496.34;;;18.55;53.62
70954;BME280;58618;47.490;8.736;2023-03-13T13:16:18;95473.03;;;18.46;52.25
70954;BME280;58618;47.490;8.736;2023-03-13T13:19:45;95480.56;;;18.51;51.68
70954;BME280;58618;47.490;8.736;2023-03-13T13:22:47;95465.44;;;18.38;53.79
70954;BME280;58618;47.490;8.736;2023-03-13T13:25:35;95439.44;;;18.45;50.57
70954;BME280;58618;47.490;8.736;2023-03-13T13:28:33;95451.06;;;18.70;52.48
70954;BME280;58618;47.490;8.736;2023-03-13T13:31:44;95450.94;;;18.86;50.09
70954;BME280;58618;47.490;8.736;2023-03-13T13:34:54;95446.19;;;18.91;50.72
70954;BME280;58618;47.490;8.736;2023-03-13T13:37:42;95436.50;;;18.69;49.44
70954;BME280;58618;47.490;8.736;2023-03-13T13:40:30;95424.47;;;18.42;49.91
70954;BME280;58618;47.490;8.736;2023-03-13T13:43:21;95434.59;;;18.66;49.61
70954;BME280;58618;47.490;8.736;2023-03-13T13:46:19;95421.91;;;18.68;50.68
70954;BME280;58618;47.490;8.736;2023-03-13T13:49:14;95420.41;;;18.67;49.29
70954;BME280;58618;47.490;8.736;2023-03-13T13:55:42;95401.22;;;18.82;49.00
70954;BME280;58618;47.490;8.736;2023-03-13T13:58:31;95396.50;;;18.65;51.45
70954;BME280;58618;47.490;8.736;2023-03-13T14:01:19;95387.56;;;18.66;49.46
70954;BME280;58618;47.490;8.736;2023-03-13T14:04:12;95374.84;;;18.65;49.64
70954;BME280;58618;47.490;8.736;2023-03-13T14:07:03;95370.28;;;18.58;49.17
70954;BME280;58618;47.490;8.736;2023-03-13T14:09:58;95375.69;;;18.72;50.53
70954;BME280;58618;47.490;8.736;2023-03-13T14:12:51;95371.06;;;18.62;49.50
70954;BME280;58618;47.490;8.736;2023-03-13T14:15:41;95369.75;;;18.49;51.21
70954;BME280;58618;47.490;8.736;2023-03-13T14:18:29;95371.06;;;18.62;49.66
70954;BME280;58618;47.490;8.736;2023-03-13T14:21:20;95362.00;;;18.79;49.36
70954;BME280;58618;47.490;8.736;2023-03-13T14:24:12;95352.00;;;18.84;49.39
70954;BME280;58618;47.490;8.736;2023-03-13T14:26:59;95349.06;;;18.89;48.84
70954;BME280;58618;47.490;8.736;2023-03-13T14:30:01;95340.94;;;18.94;47.66
70954;BME280;58618;47.490;8.736;2023-03-13T14:32:49;95343.16;;;18.92;49.70
70954;BME280;58618;47.490;8.736;2023-03-13T14:35:38;95330.09;;;18.92;49.17
70954;BME280;58618;47.490;8.736;2023-03-13T14:38:29;95325.75;;;18.77;49.47
70954;BME280;58618;47.490;8.736;2023-03-13T14:41:29;95318.34;;;18.79;50.44
70954;BME280;58618;47.490;8.736;2023-03-13T14:44:22;95307.09;;;18.75;51.12
70954;BME280;58618;47.490;8.736;2023-03-13T14:47:21;95307.78;;;18.72;50.07
70954;BME280;58618;47.490;8.736;2023-03-13T14:50:11;95307.28;;;18.63;49.98
70954;BME280;58618;47.490;8.736;2023-03-13T14:53:02;95286.66;;;18.54;50.91
70954;BME280;58618;47.490;8.736;2023-03-13T14:56:09;95274.97;;;18.48;50.58
70954;BME280;58618;47.490;8.736;2023-03-13T14:59:06;95275.28;;;18.43;51.58
70954;BME280;58618;47.490;8.736;2023-03-13T15:01:58;95277.75;;;18.33;51.77
70954;BME280;58618;47.490;8.736;2023-03-13T15:04:52;95270.69;;;18.37;53.18
70954;BME280;58618;47.490;8.736;2023-03-13T15:07:44;95267.69;;;18.35;51.89
70954;BME280;58618;47.490;8.736;2023-03-13T15:10:35;95254.88;;;18.52;52.72
70954;BME280;58618;47.490;8.736;2023-03-13T15:13:24;95261.38;;;18.62;51.73
70954;BME280;58618;47.490;8.736;2023-03-13T15:16:15;95245.63;;;18.55;51.80
70954;BME280;58618;47.490;8.736;2023-03-13T15:19:03;95247.69;;;18.46;50.90
70954;BME280;58618;47.490;8.736;2023-03-13T15:21:52;95225.91;;;18.35;50.80
70954;BME280;58618;47.490;8.736;2023-03-13T15:24:39;95227.06;;;18.11;52.91